Juan_de_la_cosa — ECJE — position and weather

sailwx.info

Track history (hours):
 
Tides and Currents Weather Stations Pressure Air Temp Water Temp Dewpoint Dewpoint Depression Visibility Wind Speed Wind Dir Waves Ship Positions

Juan_de_la_cosa

Last reported at 2017-Jan-16 04:30 UTC. Time now 2017-Jan-24 17:22 UTC.
Position N 37°14' W 027°54'.
Warning: this ship's position is 8 days out of date.

Length 75 m.

Type: SAR. MMSI: 224612000.

Date/timePositionNaut miles runAvg speedWind from/ knotsBaromVisibWave heightAir tempDewpointWater temp
2017-Jan-16 04:30N 37°14' W 027°54'5 4.9
2017-Jan-16 03:33N 37°19' W 027°53'5 4.9
2017-Jan-16 02:33N 37°24' W 027°52'5 5.0
2017-Jan-16 01:33N 37°29' W 027°51'5 5.3
2017-Jan-16 00:33N 37°34' W 027°50'6 5.5
2017-Jan-15 23:33N 37°39' W 027°48'6 5.5
2017-Jan-15 22:33N 37°45' W 027°47'5 5.5
2017-Jan-15 21:33N 37°50' W 027°46'6 5.7
2017-Jan-15 20:33N 37°56' W 027°45'6 5.7
2017-Jan-15 19:33N 38°01' W 027°44'6 5.9
2017-Jan-15 18:33N 38°07' W 027°42'6 6.0
2017-Jan-15 17:33N 38°13' W 027°41'6 5.8
2017-Jan-15 16:33N 38°19' W 027°40'6 6.0
2017-Jan-15 15:33N 38°25' W 027°38'6 5.8
2017-Jan-15 14:33N 38°30' W 027°37'6 5.9
2017-Jan-15 13:29N 38°36' W 027°40'6 6.0
2017-Jan-15 12:33N 38°42' W 027°42'6 6.3
2017-Jan-15 11:33N 38°48' W 027°44'6 6.5
2017-Jan-15 10:34N 38°54' W 027°47'7 6.5
2017-Jan-15 09:33N 39°00' W 027°49'7 6.7
2017-Jan-15 08:33N 39°06' W 027°52'6 6.3
2017-Jan-15 07:33N 39°12' W 027°56'6 5.9
2017-Jan-15 06:33N 39°18' W 027°58'6 6.5
2017-Jan-15 05:33N 39°24' W 027°55'6 6.2
2017-Jan-15 04:34N 39°30' W 027°53'6 6.5
2017-Jan-15 03:33N 39°36' W 027°50'  
Track history (hours):
 
Tides and Currents Weather Stations Pressure Air Temp Water Temp Dewpoint Dewpoint Depression Visibility Wind Speed Wind Dir Waves Ship Positions

Juan_de_la_cosa

Last reported at 2017-Jan-16 04:30 UTC. Time now 2017-Jan-24 17:22 UTC.
Position N 37°14' W 027°54'.
Warning: this ship's position is 8 days out of date.

Length 75 m.

Type: SAR. MMSI: 224612000.

Date/timePositionNaut miles runAvg speedWind from/ knotsBaromVisibWave heightAir tempDewpointWater temp
2017-Jan-16 04:30N 37°14' W 027°54'5 4.9
2017-Jan-16 03:33N 37°19' W 027°53'5 4.9
2017-Jan-16 02:33N 37°24' W 027°52'5 5.0
2017-Jan-16 01:33N 37°29' W 027°51'5 5.3
2017-Jan-16 00:33N 37°34' W 027°50'6 5.5
2017-Jan-15 23:33N 37°39' W 027°48'6 5.5
2017-Jan-15 22:33N 37°45' W 027°47'5 5.5
2017-Jan-15 21:33N 37°50' W 027°46'6 5.7
2017-Jan-15 20:33N 37°56' W 027°45'6 5.7
2017-Jan-15 19:33N 38°01' W 027°44'6 5.9
2017-Jan-15 18:33N 38°07' W 027°42'6 6.0
2017-Jan-15 17:33N 38°13' W 027°41'6 5.8
2017-Jan-15 16:33N 38°19' W 027°40'6 6.0
2017-Jan-15 15:33N 38°25' W 027°38'6 5.8
2017-Jan-15 14:33N 38°30' W 027°37'6 5.9
2017-Jan-15 13:29N 38°36' W 027°40'6 6.0
2017-Jan-15 12:33N 38°42' W 027°42'6 6.3
2017-Jan-15 11:33N 38°48' W 027°44'6 6.5
2017-Jan-15 10:34N 38°54' W 027°47'7 6.5
2017-Jan-15 09:33N 39°00' W 027°49'7 6.7
2017-Jan-15 08:33N 39°06' W 027°52'6 6.3
2017-Jan-15 07:33N 39°12' W 027°56'6 5.9
2017-Jan-15 06:33N 39°18' W 027°58'6 6.5
2017-Jan-15 05:33N 39°24' W 027°55'6 6.2
2017-Jan-15 04:34N 39°30' W 027°53'6 6.5
2017-Jan-15 03:33N 39°36' W 027°50'  

Dump ship's entire track history